sensor_id;sensor_type;location;lat;lon;timestamp;P1;durP1;ratioP1;P2;durP2;ratioP2
45548;SDS011;31270;48.328;10.096;2023-07-24T00:02:09;11.02;;;7.60;;
45548;SDS011;31270;48.328;10.096;2023-07-24T00:04:35;13.20;;;7.47;;
45548;SDS011;31270;48.328;10.096;2023-07-24T00:07:00;11.85;;;7.57;;
45548;SDS011;31270;48.328;10.096;2023-07-24T00:09:26;13.55;;;7.85;;
45548;SDS011;31270;48.328;10.096;2023-07-24T00:11:51;12.63;;;7.63;;
45548;SDS011;31270;48.328;10.096;2023-07-24T00:14:17;14.35;;;8.15;;
45548;SDS011;31270;48.328;10.096;2023-07-24T00:16:43;13.75;;;8.10;;
45548;SDS011;31270;48.328;10.096;2023-07-24T00:19:08;13.35;;;7.65;;
45548;SDS011;31270;48.328;10.096;2023-07-24T00:21:34;16.17;;;8.80;;
45548;SDS011;31270;48.328;10.096;2023-07-24T00:24:00;15.55;;;9.18;;
45548;SDS011;31270;48.328;10.096;2023-07-24T00:26:25;15.85;;;8.82;;
45548;SDS011;31270;48.328;10.096;2023-07-24T00:28:51;17.77;;;10.57;;
45548;SDS011;31270;48.328;10.096;2023-07-24T00:31:16;13.68;;;8.88;;
45548;SDS011;31270;48.328;10.096;2023-07-24T00:33:42;15.90;;;9.57;;
45548;SDS011;31270;48.328;10.096;2023-07-24T00:36:08;15.85;;;9.27;;
45548;SDS011;31270;48.328;10.096;2023-07-24T00:38:33;14.30;;;9.32;;
45548;SDS011;31270;48.328;10.096;2023-07-24T00:40:59;17.60;;;9.98;;
45548;SDS011;31270;48.328;10.096;2023-07-24T00:43:31;16.52;;;10.95;;
45548;SDS011;31270;48.328;10.096;2023-07-24T00:45:56;21.23;;;10.45;;
45548;SDS011;31270;48.328;10.096;2023-07-24T00:48:22;14.38;;;9.68;;
45548;SDS011;31270;48.328;10.096;2023-07-24T00:50:48;17.33;;;10.07;;
45548;SDS011;31270;48.328;10.096;2023-07-24T00:53:15;14.25;;;8.77;;
45548;SDS011;31270;48.328;10.096;2023-07-24T00:55:42;16.55;;;9.13;;
45548;SDS011;31270;48.328;10.096;2023-07-24T00:58:10;16.15;;;9.13;;
45548;SDS011;31270;48.328;10.096;2023-07-24T01:00:40;14.85;;;8.63;;
45548;SDS011;31270;48.328;10.096;2023-07-24T01:03:06;14.63;;;8.60;;
45548;SDS011;31270;48.328;10.096;2023-07-24T01:05:32;15.07;;;9.43;;
45548;SDS011;31270;48.328;10.096;2023-07-24T01:07:57;15.27;;;10.10;;
45548;SDS011;31270;48.328;10.096;2023-07-24T01:10:23;18.38;;;9.77;;
45548;SDS011;31270;48.328;10.096;2023-07-24T01:12:58;13.93;;;9.27;;
45548;SDS011;31270;48.328;10.096;2023-07-24T01:18:10;17.05;;;9.93;;
45548;SDS011;31270;48.328;10.096;2023-07-24T01:20:40;17.58;;;10.43;;
45548;SDS011;31270;48.328;10.096;2023-07-24T01:25:59;15.38;;;10.13;;
45548;SDS011;31270;48.328;10.096;2023-07-24T01:28:27;14.65;;;10.15;;
45548;SDS011;31270;48.328;10.096;2023-07-24T01:30:53;16.10;;;10.05;;
45548;SDS011;31270;48.328;10.096;2023-07-24T01:33:20;13.32;;;9.32;;
45548;SDS011;31270;48.328;10.096;2023-07-24T01:35:48;15.32;;;8.85;;
45548;SDS011;31270;48.328;10.096;2023-07-24T01:38:16;16.08;;;9.95;;
45548;SDS011;31270;48.328;10.096;2023-07-24T01:40:42;18.63;;;11.00;;
45548;SDS011;31270;48.328;10.096;2023-07-24T01:43:08;15.45;;;10.18;;
45548;SDS011;31270;48.328;10.096;2023-07-24T01:45:35;16.88;;;10.30;;
45548;SDS011;31270;48.328;10.096;2023-07-24T01:48:01;17.00;;;10.02;;
45548;SDS011;31270;48.328;10.096;2023-07-24T01:50:31;20.60;;;10.40;;
45548;SDS011;31270;48.328;10.096;2023-07-24T01:52:57;18.45;;;10.63;;
45548;SDS011;31270;48.328;10.096;2023-07-24T01:55:23;19.63;;;11.57;;
45548;SDS011;31270;48.328;10.096;2023-07-24T01:57:48;20.48;;;10.85;;
45548;SDS011;31270;48.328;10.096;2023-07-24T02:00:14;18.58;;;11.95;;
45548;SDS011;31270;48.328;10.096;2023-07-24T02:02:40;20.05;;;10.73;;
45548;SDS011;31270;48.328;10.096;2023-07-24T02:05:06;22.02;;;12.30;;
45548;SDS011;31270;48.328;10.096;2023-07-24T02:07:31;21.23;;;10.60;;
45548;SDS011;31270;48.328;10.096;2023-07-24T02:09:57;22.13;;;10.93;;
45548;SDS011;31270;48.328;10.096;2023-07-24T02:12:23;17.10;;;9.23;;
45548;SDS011;31270;48.328;10.096;2023-07-24T02:14:49;17.05;;;9.77;;
45548;SDS011;31270;48.328;10.096;2023-07-24T02:17:16;14.60;;;8.77;;
45548;SDS011;31270;48.328;10.096;2023-07-24T02:19:42;18.83;;;9.82;;
45548;SDS011;31270;48.328;10.096;2023-07-24T02:22:08;13.88;;;8.55;;
45548;SDS011;31270;48.328;10.096;2023-07-24T02:24:33;16.33;;;8.27;;
45548;SDS011;31270;48.328;10.096;2023-07-24T02:26:59;15.02;;;8.25;;
45548;SDS011;31270;48.328;10.096;2023-07-24T02:29:25;16.63;;;7.68;;
45548;SDS011;31270;48.328;10.096;2023-07-24T02:31:51;14.25;;;7.60;;
45548;SDS011;31270;48.328;10.096;2023-07-24T02:34:18;12.57;;;7.15;;
45548;SDS011;31270;48.328;10.096;2023-07-24T02:36:44;16.58;;;8.93;;
45548;SDS011;31270;48.328;10.096;2023-07-24T02:39:09;13.88;;;7.68;;
45548;SDS011;31270;48.328;10.096;2023-07-24T02:41:35;12.10;;;7.43;;
45548;SDS011;31270;48.328;10.096;2023-07-24T02:44:02;13.30;;;7.85;;
45548;SDS011;31270;48.328;10.096;2023-07-24T02:46:28;13.60;;;8.32;;
45548;SDS011;31270;48.328;10.096;2023-07-24T02:48:55;14.20;;;8.73;;
45548;SDS011;31270;48.328;10.096;2023-07-24T02:51:21;15.45;;;8.68;;
45548;SDS011;31270;48.328;10.096;2023-07-24T02:53:47;18.73;;;9.02;;
45548;SDS011;31270;48.328;10.096;2023-07-24T02:56:12;14.00;;;8.90;;
45548;SDS011;31270;48.328;10.096;2023-07-24T02:58:38;14.63;;;8.57;;
45548;SDS011;31270;48.328;10.096;2023-07-24T03:01:04;16.95;;;8.63;;
45548;SDS011;31270;48.328;10.096;2023-07-24T03:03:35;16.15;;;9.35;;
45548;SDS011;31270;48.328;10.096;2023-07-24T03:06:01;18.17;;;9.35;;
45548;SDS011;31270;48.328;10.096;2023-07-24T03:08:27;16.05;;;9.68;;
45548;SDS011;31270;48.328;10.096;2023-07-24T03:10:52;16.33;;;9.98;;
45548;SDS011;31270;48.328;10.096;2023-07-24T03:13:18;15.13;;;9.65;;
45548;SDS011;31270;48.328;10.096;2023-07-24T03:15:50;19.08;;;10.00;;
45548;SDS011;31270;48.328;10.096;2023-07-24T03:18:17;15.88;;;9.38;;
45548;SDS011;31270;48.328;10.096;2023-07-24T03:20:43;15.98;;;9.30;;
45548;SDS011;31270;48.328;10.096;2023-07-24T03:23:08;16.20;;;9.70;;
45548;SDS011;31270;48.328;10.096;2023-07-24T03:25:34;20.42;;;10.05;;
45548;SDS011;31270;48.328;10.096;2023-07-24T03:28:00;16.95;;;9.45;;
45548;SDS011;31270;48.328;10.096;2023-07-24T03:30:26;17.48;;;9.43;;
45548;SDS011;31270;48.328;10.096;2023-07-24T03:32:52;15.52;;;9.18;;
45548;SDS011;31270;48.328;10.096;2023-07-24T03:35:17;15.90;;;9.80;;
45548;SDS011;31270;48.328;10.096;2023-07-24T03:37:43;16.27;;;8.90;;
45548;SDS011;31270;48.328;10.096;2023-07-24T03:40:08;16.98;;;9.75;;
45548;SDS011;31270;48.328;10.096;2023-07-24T03:42:34;18.17;;;9.32;;
45548;SDS011;31270;48.328;10.096;2023-07-24T03:45:00;17.45;;;10.20;;
45548;SDS011;31270;48.328;10.096;2023-07-24T03:47:25;14.57;;;9.38;;
45548;SDS011;31270;48.328;10.096;2023-07-24T03:49:51;17.65;;;11.00;;
45548;SDS011;31270;48.328;10.096;2023-07-24T03:52:17;19.95;;;10.93;;
45548;SDS011;31270;48.328;10.096;2023-07-24T03:54:43;15.02;;;9.80;;
45548;SDS011;31270;48.328;10.096;2023-07-24T03:57:09;20.92;;;11.05;;
45548;SDS011;31270;48.328;10.096;2023-07-24T03:59:35;21.75;;;11.43;;
45548;SDS011;31270;48.328;10.096;2023-07-24T04:02:01;22.10;;;12.57;;
45548;SDS011;31270;48.328;10.096;2023-07-24T04:04:26;22.58;;;12.77;;
45548;SDS011;31270;48.328;10.096;2023-07-24T04:06:52;24.55;;;13.30;;
45548;SDS011;31270;48.328;10.096;2023-07-24T04:09:18;26.13;;;15.38;;
45548;SDS011;31270;48.328;10.096;2023-07-24T04:11:44;27.55;;;14.55;;
45548;SDS011;31270;48.328;10.096;2023-07-24T04:14:09;29.88;;;14.38;;
45548;SDS011;31270;48.328;10.096;2023-07-24T04:16:35;25.23;;;13.25;;
45548;SDS011;31270;48.328;10.096;2023-07-24T04:19:01;22.17;;;12.45;;
45548;SDS011;31270;48.328;10.096;2023-07-24T04:21:27;22.42;;;10.98;;
45548;SDS011;31270;48.328;10.096;2023-07-24T04:23:53;17.33;;;10.85;;
45548;SDS011;31270;48.328;10.096;2023-07-24T04:26:19;17.73;;;11.63;;
45548;SDS011;31270;48.328;10.096;2023-07-24T04:28:45;20.40;;;12.13;;
45548;SDS011;31270;48.328;10.096;2023-07-24T04:31:11;22.40;;;12.95;;
45548;SDS011;31270;48.328;10.096;2023-07-24T04:33:36;21.08;;;12.25;;
45548;SDS011;31270;48.328;10.096;2023-07-24T04:36:02;20.20;;;12.90;;
45548;SDS011;31270;48.328;10.096;2023-07-24T04:38:27;19.80;;;13.38;;
45548;SDS011;31270;48.328;10.096;2023-07-24T04:40:53;24.00;;;14.13;;
45548;SDS011;31270;48.328;10.096;2023-07-24T04:43:19;19.25;;;12.38;;
45548;SDS011;31270;48.328;10.096;2023-07-24T04:45:44;20.70;;;12.75;;
45548;SDS011;31270;48.328;10.096;2023-07-24T04:48:10;25.98;;;13.48;;
45548;SDS011;31270;48.328;10.096;2023-07-24T04:50:36;21.75;;;13.60;;
45548;SDS011;31270;48.328;10.096;2023-07-24T04:53:01;20.67;;;13.45;;
45548;SDS011;31270;48.328;10.096;2023-07-24T04:55:27;29.73;;;14.57;;
45548;SDS011;31270;48.328;10.096;2023-07-24T04:57:52;24.35;;;13.65;;
45548;SDS011;31270;48.328;10.096;2023-07-24T05:00:18;22.52;;;13.82;;
45548;SDS011;31270;48.328;10.096;2023-07-24T05:02:44;22.92;;;14.43;;
45548;SDS011;31270;48.328;10.096;2023-07-24T05:05:09;21.50;;;13.70;;
45548;SDS011;31270;48.328;10.096;2023-07-24T05:07:35;23.70;;;14.70;;
45548;SDS011;31270;48.328;10.096;2023-07-24T05:10:00;25.17;;;15.38;;
45548;SDS011;31270;48.328;10.096;2023-07-24T05:12:26;23.83;;;14.15;;
45548;SDS011;31270;48.328;10.096;2023-07-24T05:14:52;21.50;;;14.65;;
45548;SDS011;31270;48.328;10.096;2023-07-24T05:17:17;23.35;;;14.95;;
45548;SDS011;31270;48.328;10.096;2023-07-24T05:19:43;23.40;;;14.30;;
45548;SDS011;31270;48.328;10.096;2023-07-24T05:22:08;20.80;;;14.02;;
45548;SDS011;31270;48.328;10.096;2023-07-24T05:24:35;22.92;;;13.75;;
45548;SDS011;31270;48.328;10.096;2023-07-24T05:27:02;26.40;;;15.10;;
45548;SDS011;31270;48.328;10.096;2023-07-24T05:29:29;18.95;;;12.95;;
45548;SDS011;31270;48.328;10.096;2023-07-24T05:31:54;21.33;;;13.75;;
45548;SDS011;31270;48.328;10.096;2023-07-24T05:34:20;21.38;;;13.10;;
45548;SDS011;31270;48.328;10.096;2023-07-24T05:36:46;24.58;;;14.00;;
45548;SDS011;31270;48.328;10.096;2023-07-24T05:39:12;23.88;;;14.70;;
45548;SDS011;31270;48.328;10.096;2023-07-24T05:41:37;23.55;;;13.73;;
45548;SDS011;31270;48.328;10.096;2023-07-24T05:44:03;24.73;;;14.80;;
45548;SDS011;31270;48.328;10.096;2023-07-24T05:46:29;23.95;;;14.90;;
45548;SDS011;31270;48.328;10.096;2023-07-24T05:49:02;21.02;;;12.60;;
45548;SDS011;31270;48.328;10.096;2023-07-24T05:51:27;23.35;;;14.25;;
45548;SDS011;31270;48.328;10.096;2023-07-24T05:53:53;21.30;;;13.52;;
45548;SDS011;31270;48.328;10.096;2023-07-24T05:56:18;22.00;;;12.77;;
45548;SDS011;31270;48.328;10.096;2023-07-24T05:58:44;20.50;;;13.35;;
45548;SDS011;31270;48.328;10.096;2023-07-24T06:01:09;20.35;;;12.20;;
45548;SDS011;31270;48.328;10.096;2023-07-24T06:03:35;20.13;;;12.32;;
45548;SDS011;31270;48.328;10.096;2023-07-24T06:06:02;20.95;;;12.00;;
45548;SDS011;31270;48.328;10.096;2023-07-24T06:08:27;18.42;;;11.88;;
45548;SDS011;31270;48.328;10.096;2023-07-24T06:10:53;22.13;;;12.13;;
45548;SDS011;31270;48.328;10.096;2023-07-24T06:13:19;18.80;;;12.05;;
45548;SDS011;31270;48.328;10.096;2023-07-24T06:15:48;20.30;;;11.95;;
45548;SDS011;31270;48.328;10.096;2023-07-24T06:18:15;21.20;;;13.30;;
45548;SDS011;31270;48.328;10.096;2023-07-24T06:20:41;19.77;;;11.65;;
45548;SDS011;31270;48.328;10.096;2023-07-24T06:23:06;18.52;;;11.43;;
45548;SDS011;31270;48.328;10.096;2023-07-24T06:25:32;18.60;;;11.25;;
45548;SDS011;31270;48.328;10.096;2023-07-24T06:27:58;20.52;;;11.85;;
45548;SDS011;31270;48.328;10.096;2023-07-24T06:30:24;18.55;;;11.07;;
45548;SDS011;31270;48.328;10.096;2023-07-24T06:32:49;18.50;;;11.15;;
45548;SDS011;31270;48.328;10.096;2023-07-24T06:35:15;17.20;;;11.30;;
45548;SDS011;31270;48.328;10.096;2023-07-24T06:37:41;19.90;;;10.65;;
45548;SDS011;31270;48.328;10.096;2023-07-24T06:40:07;15.65;;;10.68;;
45548;SDS011;31270;48.328;10.096;2023-07-24T06:42:33;17.13;;;10.13;;
45548;SDS011;31270;48.328;10.096;2023-07-24T06:44:59;13.80;;;9.27;;
45548;SDS011;31270;48.328;10.096;2023-07-24T06:47:25;15.02;;;8.70;;
45548;SDS011;31270;48.328;10.096;2023-07-24T06:49:51;12.80;;;7.70;;
45548;SDS011;31270;48.328;10.096;2023-07-24T06:52:17;12.25;;;6.57;;
45548;SDS011;31270;48.328;10.096;2023-07-24T06:54:42;10.32;;;7.30;;
45548;SDS011;31270;48.328;10.096;2023-07-24T06:57:08;11.38;;;7.28;;
45548;SDS011;31270;48.328;10.096;2023-07-24T06:59:34;11.50;;;7.22;;
45548;SDS011;31270;48.328;10.096;2023-07-24T07:02:00;10.88;;;6.32;;
45548;SDS011;31270;48.328;10.096;2023-07-24T07:04:26;10.15;;;6.55;;
45548;SDS011;31270;48.328;10.096;2023-07-24T07:06:51;10.73;;;6.22;;
45548;SDS011;31270;48.328;10.096;2023-07-24T07:09:17;11.07;;;7.35;;
45548;SDS011;31270;48.328;10.096;2023-07-24T07:11:42;12.77;;;7.53;;
45548;SDS011;31270;48.328;10.096;2023-07-24T07:14:10;12.57;;;6.70;;
45548;SDS011;31270;48.328;10.096;2023-07-24T07:16:36;10.57;;;7.03;;
45548;SDS011;31270;48.328;10.096;2023-07-24T07:19:01;10.45;;;6.57;;
45548;SDS011;31270;48.328;10.096;2023-07-24T07:21:27;10.65;;;6.45;;
45548;SDS011;31270;48.328;10.096;2023-07-24T07:23:52;11.30;;;6.38;;
45548;SDS011;31270;48.328;10.096;2023-07-24T07:26:18;10.05;;;6.13;;
45548;SDS011;31270;48.328;10.096;2023-07-24T07:28:44;9.10;;;5.75;;
45548;SDS011;31270;48.328;10.096;2023-07-24T07:31:12;9.98;;;5.88;;
45548;SDS011;31270;48.328;10.096;2023-07-24T07:33:38;7.30;;;5.60;;
45548;SDS011;31270;48.328;10.096;2023-07-24T07:36:04;8.57;;;5.90;;
45548;SDS011;31270;48.328;10.096;2023-07-24T07:38:30;12.18;;;5.70;;
45548;SDS011;31270;48.328;10.096;2023-07-24T07:40:56;11.40;;;6.20;;
45548;SDS011;31270;48.328;10.096;2023-07-24T07:43:22;8.68;;;5.28;;
45548;SDS011;31270;48.328;10.096;2023-07-24T07:45:48;9.32;;;5.57;;
45548;SDS011;31270;48.328;10.096;2023-07-24T07:48:13;8.77;;;5.60;;
45548;SDS011;31270;48.328;10.096;2023-07-24T07:50:39;10.93;;;6.18;;
45548;SDS011;31270;48.328;10.096;2023-07-24T07:53:04;8.75;;;5.82;;
45548;SDS011;31270;48.328;10.096;2023-07-24T07:55:30;8.27;;;5.45;;
45548;SDS011;31270;48.328;10.096;2023-07-24T07:57:56;8.60;;;5.80;;
45548;SDS011;31270;48.328;10.096;2023-07-24T08:00:22;10.85;;;5.80;;
45548;SDS011;31270;48.328;10.096;2023-07-24T08:02:48;6.78;;;4.63;;
45548;SDS011;31270;48.328;10.096;2023-07-24T08:05:14;8.07;;;4.47;;
45548;SDS011;31270;48.328;10.096;2023-07-24T08:07:40;9.32;;;4.82;;
45548;SDS011;31270;48.328;10.096;2023-07-24T08:10:06;8.18;;;5.05;;
45548;SDS011;31270;48.328;10.096;2023-07-24T08:12:32;7.68;;;5.10;;
45548;SDS011;31270;48.328;10.096;2023-07-24T08:15:01;9.27;;;4.68;;
45548;SDS011;31270;48.328;10.096;2023-07-24T08:17:26;8.23;;;5.13;;
45548;SDS011;31270;48.328;10.096;2023-07-24T08:19:57;8.75;;;5.20;;
45548;SDS011;31270;48.328;10.096;2023-07-24T08:22:23;6.82;;;4.47;;
45548;SDS011;31270;48.328;10.096;2023-07-24T08:24:50;8.15;;;5.18;;
45548;SDS011;31270;48.328;10.096;2023-07-24T08:27:16;8.90;;;5.50;;
45548;SDS011;31270;48.328;10.096;2023-07-24T08:29:43;9.48;;;4.93;;
45548;SDS011;31270;48.328;10.096;2023-07-24T08:32:09;7.53;;;5.00;;
45548;SDS011;31270;48.328;10.096;2023-07-24T08:34:35;6.88;;;4.60;;
45548;SDS011;31270;48.328;10.096;2023-07-24T08:37:03;7.70;;;4.50;;
45548;SDS011;31270;48.328;10.096;2023-07-24T08:39:35;7.22;;;4.72;;
45548;SDS011;31270;48.328;10.096;2023-07-24T08:42:07;6.38;;;4.35;;
45548;SDS011;31270;48.328;10.096;2023-07-24T08:44:35;8.38;;;4.22;;
45548;SDS011;31270;48.328;10.096;2023-07-24T08:47:02;6.25;;;4.63;;
45548;SDS011;31270;48.328;10.096;2023-07-24T08:49:30;7.15;;;4.68;;
45548;SDS011;31270;48.328;10.096;2023-07-24T08:51:57;6.00;;;4.15;;
45548;SDS011;31270;48.328;10.096;2023-07-24T08:54:24;5.90;;;4.30;;
45548;SDS011;31270;48.328;10.096;2023-07-24T08:56:52;7.90;;;4.68;;
45548;SDS011;31270;48.328;10.096;2023-07-24T08:59:19;5.20;;;3.70;;
45548;SDS011;31270;48.328;10.096;2023-07-24T09:01:44;7.55;;;4.35;;
45548;SDS011;31270;48.328;10.096;2023-07-24T09:04:10;8.18;;;4.75;;
45548;SDS011;31270;48.328;10.096;2023-07-24T09:06:36;7.28;;;4.28;;
45548;SDS011;31270;48.328;10.096;2023-07-24T09:09:11;8.10;;;4.30;;
45548;SDS011;31270;48.328;10.096;2023-07-24T09:11:51;6.32;;;4.40;;
45548;SDS011;31270;48.328;10.096;2023-07-24T09:14:20;5.35;;;4.25;;
45548;SDS011;31270;48.328;10.096;2023-07-24T09:16:49;6.68;;;4.30;;
45548;SDS011;31270;48.328;10.096;2023-07-24T09:19:18;7.35;;;4.50;;
45548;SDS011;31270;48.328;10.096;2023-07-24T09:21:44;6.40;;;4.05;;
45548;SDS011;31270;48.328;10.096;2023-07-24T09:24:11;6.65;;;4.18;;
45548;SDS011;31270;48.328;10.096;2023-07-24T09:26:50;10.88;;;4.30;;
45548;SDS011;31270;48.328;10.096;2023-07-24T09:29:17;8.98;;;4.47;;
45548;SDS011;31270;48.328;10.096;2023-07-24T09:31:43;8.48;;;4.68;;
45548;SDS011;31270;48.328;10.096;2023-07-24T09:34:14;6.82;;;4.45;;
45548;SDS011;31270;48.328;10.096;2023-07-24T09:36:41;6.18;;;4.32;;
45548;SDS011;31270;48.328;10.096;2023-07-24T09:39:07;8.43;;;4.68;;
45548;SDS011;31270;48.328;10.096;2023-07-24T09:41:35;7.15;;;4.35;;
45548;SDS011;31270;48.328;10.096;2023-07-24T09:44:01;6.65;;;4.03;;
45548;SDS011;31270;48.328;10.096;2023-07-24T09:46:28;7.28;;;4.22;;
45548;SDS011;31270;48.328;10.096;2023-07-24T09:48:55;6.72;;;4.40;;
45548;SDS011;31270;48.328;10.096;2023-07-24T09:51:22;5.68;;;4.22;;
45548;SDS011;31270;48.328;10.096;2023-07-24T09:53:53;5.68;;;4.20;;
45548;SDS011;31270;48.328;10.096;2023-07-24T09:56:43;5.68;;;4.10;;
45548;SDS011;31270;48.328;10.096;2023-07-24T09:59:10;6.25;;;4.20;;
45548;SDS011;31270;48.328;10.096;2023-07-24T10:01:38;9.65;;;4.30;;
45548;SDS011;31270;48.328;10.096;2023-07-24T10:04:04;7.35;;;4.55;;
45548;SDS011;31270;48.328;10.096;2023-07-24T10:06:32;6.65;;;4.55;;
45548;SDS011;31270;48.328;10.096;2023-07-24T10:08:58;6.95;;;4.10;;
45548;SDS011;31270;48.328;10.096;2023-07-24T10:11:25;7.75;;;4.32;;
45548;SDS011;31270;48.328;10.096;2023-07-24T10:13:51;5.75;;;4.60;;
45548;SDS011;31270;48.328;10.096;2023-07-24T10:16:25;7.82;;;4.60;;
45548;SDS011;31270;48.328;10.096;2023-07-24T10:18:50;7.28;;;4.45;;
45548;SDS011;31270;48.328;10.096;2023-07-24T10:21:16;6.60;;;4.53;;
45548;SDS011;31270;48.328;10.096;2023-07-24T10:23:42;6.60;;;4.07;;
45548;SDS011;31270;48.328;10.096;2023-07-24T10:26:09;7.00;;;4.70;;
45548;SDS011;31270;48.328;10.096;2023-07-24T10:28:36;5.45;;;4.05;;
45548;SDS011;31270;48.328;10.096;2023-07-24T10:31:04;5.85;;;4.10;;
45548;SDS011;31270;48.328;10.096;2023-07-24T10:33:34;6.97;;;4.43;;
45548;SDS011;31270;48.328;10.096;2023-07-24T10:36:06;7.40;;;4.10;;
45548;SDS011;31270;48.328;10.096;2023-07-24T10:38:41;6.50;;;4.13;;
45548;SDS011;31270;48.328;10.096;2023-07-24T10:41:09;6.43;;;3.95;;
45548;SDS011;31270;48.328;10.096;2023-07-24T10:43:45;6.25;;;4.10;;
45548;SDS011;31270;48.328;10.096;2023-07-24T10:46:16;5.28;;;4.35;;
45548;SDS011;31270;48.328;10.096;2023-07-24T10:48:44;7.25;;;4.00;;
45548;SDS011;31270;48.328;10.096;2023-07-24T10:51:12;5.93;;;4.47;;
45548;SDS011;31270;48.328;10.096;2023-07-24T10:53:41;5.93;;;4.43;;
45548;SDS011;31270;48.328;10.096;2023-07-24T10:56:11;6.13;;;3.78;;
45548;SDS011;31270;48.328;10.096;2023-07-24T10:58:39;8.00;;;4.80;;
45548;SDS011;31270;48.328;10.096;2023-07-24T11:01:06;5.60;;;4.15;;
45548;SDS011;31270;48.328;10.096;2023-07-24T11:03:32;7.22;;;4.03;;
45548;SDS011;31270;48.328;10.096;2023-07-24T11:06:01;6.90;;;4.32;;
45548;SDS011;31270;48.328;10.096;2023-07-24T11:08:28;5.30;;;3.92;;
45548;SDS011;31270;48.328;10.096;2023-07-24T11:10:55;7.65;;;4.10;;
45548;SDS011;31270;48.328;10.096;2023-07-24T11:13:27;5.30;;;4.28;;
45548;SDS011;31270;48.328;10.096;2023-07-24T11:15:53;10.13;;;4.97;;
45548;SDS011;31270;48.328;10.096;2023-07-24T11:18:20;10.80;;;5.43;;
45548;SDS011;31270;48.328;10.096;2023-07-24T11:20:54;10.55;;;5.28;;
45548;SDS011;31270;48.328;10.096;2023-07-24T11:23:21;9.95;;;4.90;;
45548;SDS011;31270;48.328;10.096;2023-07-24T11:25:51;7.82;;;5.45;;
45548;SDS011;31270;48.328;10.096;2023-07-24T11:28:18;8.10;;;5.13;;
45548;SDS011;31270;48.328;10.096;2023-07-24T11:30:45;8.95;;;5.28;;
45548;SDS011;31270;48.328;10.096;2023-07-24T11:33:11;9.48;;;5.63;;
45548;SDS011;31270;48.328;10.096;2023-07-24T11:35:39;7.72;;;5.28;;
45548;SDS011;31270;48.328;10.096;2023-07-24T11:38:06;10.43;;;5.22;;
45548;SDS011;31270;48.328;10.096;2023-07-24T11:40:38;10.60;;;5.88;;
45548;SDS011;31270;48.328;10.096;2023-07-24T11:43:14;8.10;;;5.38;;
45548;SDS011;31270;48.328;10.096;2023-07-24T11:45:47;8.30;;;4.97;;
45548;SDS011;31270;48.328;10.096;2023-07-24T11:48:17;8.65;;;5.63;;
45548;SDS011;31270;48.328;10.096;2023-07-24T11:50:46;7.20;;;4.88;;
45548;SDS011;31270;48.328;10.096;2023-07-24T11:53:19;7.25;;;5.03;;
45548;SDS011;31270;48.328;10.096;2023-07-24T11:55:48;10.35;;;5.35;;
45548;SDS011;31270;48.328;10.096;2023-07-24T11:58:15;7.30;;;4.68;;
45548;SDS011;31270;48.328;10.096;2023-07-24T12:00:42;7.35;;;5.03;;
45548;SDS011;31270;48.328;10.096;2023-07-24T12:03:07;7.45;;;4.97;;
45548;SDS011;31270;48.328;10.096;2023-07-24T12:05:40;8.52;;;5.18;;
45548;SDS011;31270;48.328;10.096;2023-07-24T12:08:06;6.55;;;4.65;;
45548;SDS011;31270;48.328;10.096;2023-07-24T12:10:35;7.78;;;4.75;;
45548;SDS011;31270;48.328;10.096;2023-07-24T12:13:03;8.38;;;5.20;;
45548;SDS011;31270;48.328;10.096;2023-07-24T12:15:30;6.90;;;4.60;;
45548;SDS011;31270;48.328;10.096;2023-07-24T12:17:57;9.10;;;4.90;;
45548;SDS011;31270;48.328;10.096;2023-07-24T12:20:23;7.50;;;5.00;;
45548;SDS011;31270;48.328;10.096;2023-07-24T12:22:49;7.40;;;5.15;;
45548;SDS011;31270;48.328;10.096;2023-07-24T12:25:15;6.28;;;4.63;;
45548;SDS011;31270;48.328;10.096;2023-07-24T12:27:41;9.13;;;5.88;;
45548;SDS011;31270;48.328;10.096;2023-07-24T12:30:07;8.30;;;5.43;;
45548;SDS011;31270;48.328;10.096;2023-07-24T12:32:33;7.93;;;4.97;;
45548;SDS011;31270;48.328;10.096;2023-07-24T12:35:00;7.22;;;5.30;;
45548;SDS011;31270;48.328;10.096;2023-07-24T12:37:26;7.72;;;4.80;;
45548;SDS011;31270;48.328;10.096;2023-07-24T12:39:51;8.02;;;4.88;;
45548;SDS011;31270;48.328;10.096;2023-07-24T12:42:17;7.25;;;4.63;;
45548;SDS011;31270;48.328;10.096;2023-07-24T12:44:43;9.60;;;4.90;;
45548;SDS011;31270;48.328;10.096;2023-07-24T12:47:09;6.53;;;5.30;;
45548;SDS011;31270;48.328;10.096;2023-07-24T12:49:35;7.63;;;5.55;;
45548;SDS011;31270;48.328;10.096;2023-07-24T12:52:01;9.40;;;5.95;;
45548;SDS011;31270;48.328;10.096;2023-07-24T12:54:28;10.38;;;6.13;;
45548;SDS011;31270;48.328;10.096;2023-07-24T12:56:53;8.23;;;5.53;;
45548;SDS011;31270;48.328;10.096;2023-07-24T12:59:20;8.38;;;5.57;;
45548;SDS011;31270;48.328;10.096;2023-07-24T13:01:46;8.15;;;5.18;;
45548;SDS011;31270;48.328;10.096;2023-07-24T13:04:11;10.77;;;5.75;;
45548;SDS011;31270;48.328;10.096;2023-07-24T13:06:37;9.98;;;5.60;;
45548;SDS011;31270;48.328;10.096;2023-07-24T13:09:03;8.88;;;5.55;;
45548;SDS011;31270;48.328;10.096;2023-07-24T13:11:29;11.15;;;6.05;;
45548;SDS011;31270;48.328;10.096;2023-07-24T13:13:55;9.02;;;5.65;;
45548;SDS011;31270;48.328;10.096;2023-07-24T13:16:21;8.23;;;4.68;;
45548;SDS011;31270;48.328;10.096;2023-07-24T13:18:47;6.63;;;4.30;;
45548;SDS011;31270;48.328;10.096;2023-07-24T13:21:12;7.88;;;4.50;;
45548;SDS011;31270;48.328;10.096;2023-07-24T13:23:39;7.45;;;4.25;;
45548;SDS011;31270;48.328;10.096;2023-07-24T13:26:08;6.78;;;3.60;;
45548;SDS011;31270;48.328;10.096;2023-07-24T13:28:39;5.38;;;3.65;;
45548;SDS011;31270;48.328;10.096;2023-07-24T13:31:13;6.75;;;3.88;;
45548;SDS011;31270;48.328;10.096;2023-07-24T13:33:40;5.93;;;3.72;;
45548;SDS011;31270;48.328;10.096;2023-07-24T13:36:06;5.80;;;3.88;;
45548;SDS011;31270;48.328;10.096;2023-07-24T13:38:33;5.25;;;3.83;;
45548;SDS011;31270;48.328;10.096;2023-07-24T13:40:59;4.82;;;3.47;;
45548;SDS011;31270;48.328;10.096;2023-07-24T13:43:25;8.07;;;4.57;;
45548;SDS011;31270;48.328;10.096;2023-07-24T13:45:51;6.32;;;4.30;;
45548;SDS011;31270;48.328;10.096;2023-07-24T13:48:18;6.13;;;4.20;;
45548;SDS011;31270;48.328;10.096;2023-07-24T13:50:43;6.00;;;3.88;;
45548;SDS011;31270;48.328;10.096;2023-07-24T13:53:09;7.65;;;4.45;;
45548;SDS011;31270;48.328;10.096;2023-07-24T13:55:35;8.35;;;3.80;;
45548;SDS011;31270;48.328;10.096;2023-07-24T13:58:00;6.45;;;4.05;;
45548;SDS011;31270;48.328;10.096;2023-07-24T14:00:26;5.40;;;3.50;;
45548;SDS011;31270;48.328;10.096;2023-07-24T14:02:51;4.28;;;2.80;;
45548;SDS011;31270;48.328;10.096;2023-07-24T14:05:17;4.93;;;3.28;;
45548;SDS011;31270;48.328;10.096;2023-07-24T14:07:43;5.13;;;3.20;;
45548;SDS011;31270;48.328;10.096;2023-07-24T14:10:09;4.90;;;3.10;;
45548;SDS011;31270;48.328;10.096;2023-07-24T14:12:35;4.82;;;2.80;;
45548;SDS011;31270;48.328;10.096;2023-07-24T14:15:01;2.47;;;2.20;;
45548;SDS011;31270;48.328;10.096;2023-07-24T14:17:27;4.15;;;2.50;;
45548;SDS011;31270;48.328;10.096;2023-07-24T14:19:53;4.03;;;2.60;;
45548;SDS011;31270;48.328;10.096;2023-07-24T14:22:19;3.15;;;2.38;;
45548;SDS011;31270;48.328;10.096;2023-07-24T14:24:44;5.00;;;2.55;;
45548;SDS011;31270;48.328;10.096;2023-07-24T14:27:11;5.45;;;2.45;;